createdAt,value
2018-02-12T15:49:39.517Z,985.37
2018-02-12T15:50:39.483Z,985.37
2018-02-12T15:52:31.488Z,985.35
2018-02-12T15:53:31.445Z,985.40
2018-02-12T15:54:31.414Z,985.40
2018-02-12T15:55:31.376Z,985.41
2018-02-12T15:56:31.365Z,985.44
2018-02-12T15:57:31.306Z,985.44
2018-02-12T15:58:31.287Z,985.47
2018-02-12T15:59:31.239Z,985.44
2018-02-12T16:00:31.206Z,985.45
2018-02-12T16:01:31.175Z,985.45
2018-02-12T16:02:31.143Z,985.45
2018-02-12T16:03:31.110Z,985.50
2018-02-12T16:04:31.075Z,985.48
2018-02-12T16:05:31.044Z,985.49
2018-02-12T16:06:31.017Z,985.53
2018-02-12T16:07:30.986Z,985.52
2018-02-12T16:08:30.956Z,985.56
2018-02-12T16:09:30.927Z,985.59
2018-02-12T16:10:30.896Z,985.57
2018-02-12T16:11:30.867Z,985.58
2018-02-12T16:12:30.836Z,985.62
2018-02-12T16:13:30.807Z,985.60
2018-02-12T16:14:30.778Z,985.65
2018-02-12T16:15:30.749Z,985.62
2018-02-12T16:16:30.719Z,985.70
2018-02-12T16:17:30.690Z,985.66
2018-02-12T16:18:30.661Z,985.70
2018-02-12T16:19:30.632Z,985.64
2018-02-12T16:20:30.604Z,985.69
2018-02-12T16:21:30.575Z,985.68
2018-02-12T16:22:30.547Z,985.75
2018-02-12T16:23:30.517Z,985.75
2018-02-12T16:24:30.847Z,985.77
2018-02-12T16:25:30.462Z,985.76
2018-02-12T16:26:30.433Z,985.81
2018-02-12T16:27:30.762Z,985.82
2018-02-12T16:28:30.380Z,985.83
2018-02-12T16:29:30.350Z,985.80
2018-02-12T16:30:30.321Z,985.82
2018-02-12T16:31:30.293Z,985.81
2018-02-12T16:32:30.265Z,985.83
2018-02-12T16:33:30.232Z,985.84
2018-02-12T16:34:30.210Z,985.87
2018-02-12T16:35:30.182Z,985.89
2018-02-12T16:36:30.154Z,985.92
2018-02-12T16:37:30.127Z,985.90
2018-02-12T16:38:30.099Z,985.93
2018-02-12T16:39:30.071Z,985.94
2018-02-12T16:40:30.044Z,985.93
2018-02-12T16:41:30.017Z,985.95
2018-02-12T16:42:29.987Z,985.96
2018-02-12T16:43:29.960Z,985.94
2018-02-12T16:44:29.933Z,985.97
2018-02-12T16:45:29.911Z,986.01
2018-02-12T16:46:29.876Z,986.00
2018-02-12T16:47:29.841Z,986.02
2018-02-12T16:48:29.824Z,986.05
2018-02-12T16:49:29.804Z,986.07
2018-02-12T16:50:29.769Z,986.07
2018-02-12T16:51:29.741Z,986.08
2018-02-12T16:52:29.713Z,986.12
2018-02-12T16:53:29.686Z,986.11
2018-02-12T16:54:29.659Z,986.12
2018-02-12T16:55:29.636Z,986.14
2018-02-12T16:56:29.604Z,986.14
2018-02-12T16:57:29.582Z,986.11
2018-02-12T16:58:29.552Z,986.17
2018-02-12T16:59:29.523Z,986.21
2018-02-12T17:00:29.493Z,986.20
2018-02-12T17:01:29.486Z,986.17
2018-02-12T17:02:29.491Z,986.17
2018-02-12T17:03:29.414Z,986.16
2018-02-12T17:04:29.386Z,986.20
2018-02-12T17:05:29.360Z,986.22
2018-02-12T17:06:29.334Z,986.19
2018-02-12T17:07:29.305Z,986.25
2018-02-12T17:08:29.294Z,986.31
2018-02-12T17:09:29.252Z,986.28
2018-02-12T17:10:29.224Z,986.31
2018-02-12T17:11:29.197Z,986.31
2018-02-12T17:12:29.169Z,986.26
2018-02-12T17:13:29.148Z,986.29
2018-02-12T17:14:29.116Z,986.29
2018-02-12T17:15:29.088Z,986.32
2018-02-12T17:16:29.062Z,986.30
2018-02-12T17:17:29.036Z,986.36
2018-02-12T17:18:29.008Z,986.34
2018-02-12T17:19:28.981Z,986.33
2018-02-12T17:20:28.950Z,986.32
2018-02-12T17:21:28.926Z,986.36
2018-02-12T17:22:28.899Z,986.33
2018-02-12T17:23:28.874Z,986.35
2018-02-12T17:24:29.100Z,986.38
2018-02-12T17:25:28.817Z,986.39
2018-02-12T17:26:28.804Z,986.41
2018-02-12T17:27:29.131Z,986.42
2018-02-12T17:28:28.737Z,986.41
2018-02-12T17:29:28.709Z,986.41
2018-02-12T17:30:28.683Z,986.44
2018-02-12T17:31:28.654Z,986.46
2018-02-12T17:32:28.629Z,986.44
2018-02-12T17:33:28.602Z,986.48
2018-02-12T17:34:28.575Z,986.49
2018-02-12T17:35:28.548Z,986.51
2018-02-12T17:36:28.520Z,986.54
2018-02-12T17:37:28.491Z,986.53
2018-02-12T17:38:28.470Z,986.50
2018-02-12T17:39:28.439Z,986.48
2018-02-12T17:40:28.412Z,986.54
2018-02-12T17:41:28.386Z,986.54
2018-02-12T17:42:28.345Z,986.54
2018-02-12T17:43:28.341Z,986.51
2018-02-12T17:44:28.303Z,986.58
2018-02-12T17:45:28.276Z,986.59
2018-02-12T17:46:28.243Z,986.59
2018-02-12T17:47:28.235Z,986.58
2018-02-12T17:48:28.203Z,986.58
2018-02-12T17:49:28.204Z,986.63
2018-02-12T17:50:28.142Z,986.65
2018-02-12T17:51:28.115Z,986.69
2018-02-12T17:52:28.088Z,986.68
2018-02-12T17:53:28.061Z,986.71
2018-02-12T17:54:28.038Z,986.72
2018-02-12T17:55:28.006Z,986.76
2018-02-12T17:56:27.979Z,986.80
2018-02-12T17:57:27.952Z,986.77
2018-02-12T17:58:27.926Z,986.80
2018-02-12T17:59:27.899Z,986.77
2018-02-12T18:00:27.871Z,986.79
2018-02-12T18:01:27.847Z,986.79
2018-02-12T18:02:27.818Z,986.80
2018-02-12T18:03:27.791Z,986.84
2018-02-12T18:04:27.761Z,986.82
2018-02-12T18:05:27.737Z,986.83
2018-02-12T18:06:27.714Z,986.86
2018-02-12T18:07:27.681Z,986.90
2018-02-12T18:08:27.654Z,986.88
2018-02-12T18:09:27.627Z,986.89
2018-02-12T18:10:27.601Z,986.91
2018-02-12T18:11:27.567Z,986.93
2018-02-12T18:12:27.547Z,986.87
2018-02-12T18:13:27.534Z,986.90
2018-02-12T18:14:27.494Z,986.89
2018-02-12T18:15:27.468Z,986.90
2018-02-12T18:16:27.438Z,986.91
2018-02-12T18:17:27.412Z,986.93
2018-02-12T18:18:27.385Z,986.92
2018-02-12T18:19:27.354Z,986.90
2018-02-12T18:20:27.334Z,986.89
2018-02-12T18:21:27.303Z,986.93
2018-02-12T18:22:27.277Z,986.93
2018-02-12T18:23:27.281Z,986.92
2018-02-12T18:24:27.219Z,986.91
2018-02-12T18:25:27.196Z,986.95
2018-02-12T18:26:27.169Z,986.95
2018-02-12T18:27:27.139Z,987.01
2018-02-12T18:28:27.114Z,987.04
2018-02-12T18:29:27.086Z,987.07
2018-02-12T18:30:27.060Z,987.06
2018-02-12T18:31:27.030Z,987.08
2018-02-12T18:32:27.005Z,987.07
2018-02-12T18:33:26.978Z,987.07
2018-02-12T18:34:26.958Z,987.06
2018-02-12T18:35:26.924Z,987.12
2018-02-12T18:36:26.893Z,987.12
2018-02-12T18:37:26.871Z,987.10
2018-02-12T18:38:26.845Z,987.13
2018-02-12T18:39:26.815Z,987.15
2018-02-12T18:40:26.788Z,987.16
2018-02-12T18:41:26.761Z,987.14
2018-02-12T18:42:26.740Z,987.17
2018-02-12T18:43:26.709Z,987.18
2018-02-12T18:44:26.680Z,987.19
2018-02-12T18:45:26.651Z,987.22
2018-02-12T18:46:26.626Z,987.21
2018-02-12T18:47:26.598Z,987.23
2018-02-12T18:48:26.574Z,987.22
2018-02-12T18:49:26.546Z,987.24
2018-02-12T18:50:26.517Z,987.27
2018-02-12T18:51:26.489Z,987.27
2018-02-12T18:52:26.463Z,987.29
2018-02-12T18:53:26.436Z,987.30
2018-02-12T18:54:26.411Z,987.27
2018-02-12T18:55:26.382Z,987.31
2018-02-12T18:56:26.354Z,987.29
2018-02-12T18:57:26.328Z,987.32
2018-02-12T18:58:26.300Z,987.32
2018-02-12T18:59:26.270Z,987.33
2018-02-12T19:00:26.244Z,987.31
2018-02-12T19:01:26.218Z,987.32
2018-02-12T19:02:26.196Z,987.33
2018-02-12T19:03:26.163Z,987.35
2018-02-12T19:04:26.141Z,987.33
2018-02-12T19:05:26.110Z,987.32
2018-02-12T19:06:26.083Z,987.31
2018-02-12T19:07:26.055Z,987.34
2018-02-12T19:08:26.048Z,987.30
2018-02-12T19:09:26.001Z,987.30
2018-02-12T19:10:25.973Z,987.32
2018-02-12T19:11:25.945Z,987.31
2018-02-12T19:12:25.918Z,987.32
2018-02-12T19:13:25.892Z,987.32
2018-02-12T19:14:25.865Z,987.25
2018-02-12T19:15:25.837Z,987.29
2018-02-12T19:16:25.798Z,987.28
2018-02-12T19:17:25.779Z,987.34
2018-02-12T19:18:25.764Z,987.32
2018-02-12T19:19:25.728Z,987.34
2018-02-12T19:20:25.701Z,987.33
2018-02-12T19:21:25.679Z,987.38
2018-02-12T19:22:25.646Z,987.38
2018-02-12T19:23:25.619Z,987.38
2018-02-12T19:24:25.592Z,987.38
2018-02-12T19:25:25.565Z,987.41
2018-02-12T19:26:25.538Z,987.43
2018-02-12T19:27:25.511Z,987.44
2018-02-12T19:28:25.484Z,987.45
2018-02-12T19:29:25.459Z,987.45
2018-02-12T19:30:25.424Z,987.42
2018-02-12T19:31:25.401Z,987.45
2018-02-12T19:32:25.385Z,987.42
2018-02-12T19:33:25.352Z,987.42
2018-02-12T19:34:25.322Z,987.43
2018-02-12T19:35:25.292Z,987.42
2018-02-12T19:36:25.264Z,987.41
2018-02-12T19:37:25.234Z,987.43
2018-02-12T19:38:25.212Z,987.43
2018-02-12T19:39:25.183Z,987.43
2018-02-12T19:40:25.156Z,987.40
2018-02-12T19:41:25.129Z,987.43
2018-02-12T19:42:25.102Z,987.45
2018-02-12T19:43:25.074Z,987.43
2018-02-12T19:44:25.046Z,987.44
2018-02-12T19:45:25.018Z,987.44
2018-02-12T19:46:24.994Z,987.44
2018-02-12T19:47:24.971Z,987.46
2018-02-12T19:48:24.941Z,987.47
2018-02-12T19:49:24.911Z,987.48
2018-02-12T19:50:24.895Z,987.48
2018-02-12T19:51:24.856Z,987.51
2018-02-12T19:52:24.828Z,987.54
2018-02-12T19:53:24.810Z,987.56
2018-02-12T19:54:24.775Z,987.51
2018-02-12T19:55:24.745Z,987.50
2018-02-12T19:56:24.719Z,987.50
2018-02-12T19:57:24.693Z,987.53
2018-02-12T19:58:24.666Z,987.54
2018-02-12T19:59:24.639Z,987.55
2018-02-12T20:00:24.616Z,987.52
2018-02-12T20:01:24.584Z,987.56
2018-02-12T20:02:24.560Z,987.52
2018-02-12T20:03:24.529Z,987.55
2018-02-12T20:04:24.499Z,987.57
2018-02-12T20:05:24.474Z,987.56
2018-02-12T20:06:24.452Z,987.57
2018-02-12T20:07:24.422Z,987.59
2018-02-12T20:08:24.392Z,987.58
2018-02-12T20:09:24.365Z,987.56
2018-02-12T20:10:24.337Z,987.58
2018-02-12T20:11:24.310Z,987.58
2018-02-12T20:12:24.282Z,987.62
2018-02-12T20:13:24.255Z,987.63
2018-02-12T20:14:24.244Z,987.64
2018-02-12T20:15:24.193Z,987.65
2018-02-12T20:16:24.180Z,987.66
2018-02-12T20:17:24.147Z,987.63
2018-02-12T20:18:24.118Z,987.69
2018-02-12T20:19:24.092Z,987.70
2018-02-12T20:20:24.062Z,987.69
2018-02-12T20:21:24.041Z,987.71
2018-02-12T20:22:24.011Z,987.69
2018-02-12T20:23:23.980Z,987.73
2018-02-12T20:24:23.953Z,987.72
2018-02-12T20:25:23.927Z,987.73
2018-02-12T20:26:23.900Z,987.74
2018-02-12T20:27:23.876Z,987.76
2018-02-12T20:28:23.842Z,987.76
2018-02-12T20:29:23.879Z,987.77
2018-02-12T20:30:23.790Z,987.79
2018-02-12T20:31:23.751Z,987.79
2018-02-12T20:32:23.736Z,987.82
2018-02-12T20:33:23.708Z,987.85
2018-02-12T20:34:23.680Z,987.82
2018-02-12T20:35:23.648Z,987.85
2018-02-12T20:36:23.628Z,987.85
2018-02-12T20:37:23.599Z,987.84
2018-02-12T20:38:23.568Z,987.86
2018-02-12T20:39:23.547Z,987.90
2018-02-12T20:40:23.522Z,987.88
2018-02-12T20:41:23.490Z,987.90
2018-02-12T20:42:23.463Z,987.90
2018-02-12T20:43:23.435Z,987.87
2018-02-12T20:44:23.407Z,987.89
2018-02-12T20:45:23.374Z,987.88
2018-02-12T20:46:23.352Z,987.89
2018-02-12T20:47:23.330Z,987.89
2018-02-12T20:48:23.297Z,987.90
2018-02-12T20:49:23.270Z,987.90
2018-02-12T20:50:23.243Z,987.90
2018-02-12T20:51:23.219Z,987.90
2018-02-12T20:52:23.189Z,987.91
2018-02-12T20:53:23.160Z,987.96
2018-02-12T20:54:23.133Z,987.89
2018-02-12T20:55:23.105Z,987.96
2018-02-12T20:56:23.078Z,987.86
2018-02-12T20:57:23.050Z,987.90
2018-02-12T20:58:23.024Z,987.92
2018-02-12T20:59:22.996Z,987.91
2018-02-12T21:00:22.968Z,987.91
2018-02-12T21:01:22.943Z,987.97
2018-02-12T21:02:22.908Z,987.98
2018-02-12T21:03:22.884Z,987.96
2018-02-12T21:04:22.859Z,988.00
2018-02-12T21:05:22.836Z,987.99
2018-02-12T21:06:22.810Z,987.98
2018-02-12T21:07:22.777Z,987.98
2018-02-12T21:08:22.748Z,987.94
2018-02-12T21:09:22.722Z,987.96
2018-02-12T21:10:22.695Z,987.98
2018-02-12T21:11:22.666Z,988.00
2018-02-12T21:12:22.641Z,988.02
2018-02-12T21:13:22.613Z,988.02
2018-02-12T21:14:22.585Z,988.01
2018-02-12T21:15:22.557Z,987.98
2018-02-12T21:16:22.535Z,988.00
2018-02-12T21:17:22.537Z,988.02
2018-02-12T21:18:22.475Z,988.02
2018-02-12T21:19:22.447Z,988.02
2018-02-12T21:20:22.424Z,988.05
2018-02-12T21:21:22.393Z,988.08
2018-02-12T21:22:22.366Z,988.05
2018-02-12T21:23:22.337Z,988.09
2018-02-12T21:24:22.318Z,988.08
2018-02-12T21:25:22.282Z,988.09
2018-02-12T21:26:22.255Z,988.11
2018-02-12T21:27:22.227Z,988.10
2018-02-12T21:28:22.211Z,988.14
2018-02-12T21:29:22.219Z,988.09
2018-02-12T21:30:22.146Z,988.11
2018-02-12T21:31:22.118Z,988.08
2018-02-12T21:32:22.090Z,988.06
2018-02-12T21:33:22.064Z,988.12
2018-02-12T21:34:22.037Z,988.12
2018-02-12T21:35:22.008Z,988.09
2018-02-12T21:36:21.981Z,988.13
2018-02-12T21:37:21.953Z,988.12
2018-02-12T21:38:21.929Z,988.10
2018-02-12T21:39:21.900Z,988.07
2018-02-12T21:40:21.875Z,988.11
2018-02-12T21:41:21.844Z,988.12
2018-02-12T21:42:21.817Z,988.13
2018-02-12T21:43:21.788Z,988.10
2018-02-12T21:44:21.775Z,988.12
2018-02-12T21:45:21.733Z,988.13
2018-02-12T21:46:21.707Z,988.09
2018-02-12T21:47:21.679Z,988.14
2018-02-12T21:48:21.652Z,988.15
2018-02-12T21:49:21.623Z,988.09
2018-02-12T21:50:21.597Z,988.10
2018-02-12T21:51:21.569Z,988.11
2018-02-12T21:52:21.565Z,988.13
2018-02-12T21:53:21.514Z,988.11
2018-02-12T21:54:21.487Z,988.14
2018-02-12T21:55:21.459Z,988.14
2018-02-12T21:56:21.432Z,988.15
2018-02-12T21:57:21.405Z,988.15
2018-02-12T21:58:21.391Z,988.19
2018-02-12T21:59:21.357Z,988.19
2018-02-12T22:00:21.327Z,988.21
2018-02-12T22:01:21.364Z,988.19
2018-02-12T22:02:21.268Z,988.23
2018-02-12T22:03:21.238Z,988.23
2018-02-12T22:04:21.220Z,988.20
2018-02-12T22:05:21.190Z,988.22
2018-02-12T22:06:21.157Z,988.21
2018-02-12T22:07:21.116Z,988.22
2018-02-12T22:08:21.113Z,988.20
2018-02-12T22:09:21.077Z,988.20
2018-02-12T22:10:21.047Z,988.20
2018-02-12T22:11:21.021Z,988.16
2018-02-12T22:12:20.992Z,988.17
2018-02-12T22:13:20.976Z,988.17
2018-02-12T22:14:20.938Z,988.13
2018-02-12T22:15:20.915Z,988.18
2018-02-12T22:16:20.883Z,988.14
2018-02-12T22:17:20.854Z,988.16
2018-02-12T22:18:20.829Z,988.15
2018-02-12T22:19:20.800Z,988.16
2018-02-12T22:20:20.772Z,988.16
2018-02-12T22:21:20.745Z,988.16
2018-02-12T22:22:20.718Z,988.16
2018-02-12T22:23:20.691Z,988.16
2018-02-12T22:24:20.662Z,988.15
2018-02-12T22:25:20.640Z,988.14
2018-02-12T22:26:20.608Z,988.14
2018-02-12T22:27:20.580Z,988.12
2018-02-12T22:28:20.555Z,988.13
2018-02-12T22:29:20.525Z,988.10
2018-02-12T22:30:20.498Z,988.12
2018-02-12T22:31:20.470Z,988.11
2018-02-12T22:32:20.442Z,988.10
2018-02-12T22:33:20.415Z,988.12
2018-02-12T22:34:20.390Z,988.15
2018-02-12T22:35:20.360Z,988.16
2018-02-12T22:36:20.332Z,988.15
2018-02-12T22:37:20.305Z,988.13
2018-02-12T22:38:20.278Z,988.13
2018-02-12T22:39:20.259Z,988.15
2018-02-12T22:40:20.222Z,988.09
2018-02-12T22:41:20.198Z,988.13
2018-02-12T22:42:20.168Z,988.14
2018-02-12T22:43:20.140Z,988.10
2018-02-12T22:44:20.112Z,988.13
2018-02-12T22:45:20.085Z,988.12
2018-02-12T22:46:20.058Z,988.13
2018-02-12T22:47:20.030Z,988.13
2018-02-12T22:48:19.999Z,988.16
2018-02-12T22:49:19.975Z,988.15
2018-02-12T22:50:19.948Z,988.12
2018-02-12T22:51:19.920Z,988.15
2018-02-12T22:52:19.893Z,988.20
2018-02-12T22:53:19.864Z,988.19
2018-02-12T22:54:19.838Z,988.18
2018-02-12T22:55:19.810Z,988.16
2018-02-12T22:56:19.786Z,988.20
2018-02-12T22:57:19.755Z,988.21
2018-02-12T22:58:19.740Z,988.22
2018-02-12T22:59:19.699Z,988.22
2018-02-12T23:00:19.673Z,988.19
2018-02-12T23:01:19.646Z,988.24
2018-02-12T23:02:19.617Z,988.24
2018-02-12T23:03:19.627Z,988.25
2018-02-12T23:04:19.578Z,988.26
2018-02-12T23:05:19.534Z,988.24
2018-02-12T23:06:19.508Z,988.32
2018-02-12T23:07:19.479Z,988.26
2018-02-12T23:08:19.452Z,988.27
2018-02-12T23:09:19.422Z,988.29
2018-02-12T23:10:19.390Z,988.30
2018-02-12T23:11:19.370Z,988.31
2018-02-12T23:12:19.349Z,988.32
2018-02-12T23:13:19.314Z,988.27
2018-02-12T23:14:19.287Z,988.29
2018-02-12T23:15:19.258Z,988.31
2018-02-12T23:16:19.227Z,988.30
2018-02-12T23:17:19.204Z,988.29
2018-02-12T23:18:19.177Z,988.30
2018-02-12T23:19:19.149Z,988.31
2018-02-12T23:20:19.121Z,988.32
2018-02-12T23:21:19.102Z,988.31
2018-02-12T23:22:19.066Z,988.32
2018-02-12T23:23:19.037Z,988.30
2018-02-12T23:24:19.011Z,988.34
2018-02-12T23:25:18.984Z,988.28
2018-02-12T23:26:18.957Z,988.28
2018-02-12T23:27:18.928Z,988.27
2018-02-12T23:28:18.901Z,988.30
2018-02-12T23:29:18.873Z,988.27
2018-02-12T23:30:18.845Z,988.27
2018-02-12T23:31:18.818Z,988.26
2018-02-12T23:32:18.794Z,988.25
2018-02-12T23:33:18.763Z,988.28
2018-02-12T23:34:18.722Z,988.30
2018-02-12T23:35:18.704Z,988.30
2018-02-12T23:36:18.680Z,988.27
2018-02-12T23:37:18.652Z,988.28
2018-02-12T23:38:18.626Z,988.31
2018-02-12T23:39:18.598Z,988.30
2018-02-12T23:40:18.571Z,988.29
2018-02-12T23:41:18.543Z,988.32
2018-02-12T23:42:18.516Z,988.34
2018-02-12T23:43:18.490Z,988.31
2018-02-12T23:44:18.474Z,988.33
2018-02-12T23:45:18.433Z,988.33
2018-02-12T23:46:18.405Z,988.34
2018-02-12T23:47:18.377Z,988.32
2018-02-12T23:48:18.352Z,988.30
2018-02-12T23:49:18.322Z,988.39
2018-02-12T23:50:18.295Z,988.42
2018-02-12T23:51:18.266Z,988.40
2018-02-12T23:52:18.239Z,988.39
2018-02-12T23:53:18.218Z,988.38
2018-02-12T23:54:18.185Z,988.37
2018-02-12T23:55:18.156Z,988.38
2018-02-12T23:56:18.129Z,988.41
2018-02-12T23:57:18.100Z,988.38
2018-02-12T23:58:18.075Z,988.40
2018-02-12T23:59:18.046Z,988.41
